Time;durP1;ratioP1;P1;durP2;ratioP2;P2;SDS_P1;SDS_P2;PMS_P1;PMS_P2;Temp;Humidity;BMP_temperature;BMP_pressure;BME280_temperature;BME280_humidity;BME280_pressure;Samples;Min_cycle;Max_cycle;Signal;HPM_P1;HPM_P2
2022/05/31 00:01:18;;;;;;;;;;;10.90;99.90;;;;;;5007872;28;19929;-65
2022/05/31 00:03:45;;;;;;;;;;;10.90;99.90;;;;;;5022015;28;19929;-65
2022/05/31 00:06:14;;;;;;;;;;;10.90;99.90;;;;;;5010631;28;19988;-65
2022/05/31 00:08:40;;;;;;;;;;;10.90;99.90;;;;;;5004314;28;19936;-65
2022/05/31 00:11:07;;;;;;;;;;;10.90;99.90;;;;;;5009695;28;19932;-65
2022/05/31 00:13:34;;;;;;;;;;;10.90;99.90;;;;;;5025416;28;19926;-64
2022/05/31 00:16:01;;;;;;;;;;;10.80;99.90;;;;;;5009067;28;19953;-65
2022/05/31 00:18:28;;;;;;;;;;;10.80;99.90;;;;;;5036223;28;19933;-65
2022/05/31 00:20:55;;;;;;;;;;;10.90;99.90;;;;;;5024714;28;19933;-65
2022/05/31 00:23:23;;;;;;;;;;;10.90;99.90;;;;;;5018555;28;19929;-65
2022/05/31 00:25:50;;;;;;;;;;;10.90;99.90;;;;;;5006231;28;19933;-65
2022/05/31 00:28:17;;;;;;;;;;;11.00;99.90;;;;;;5038461;28;19925;-65
2022/05/31 00:30:43;;;;;;;;;;;10.90;99.90;;;;;;5012321;28;19936;-65
2022/05/31 00:33:10;;;;;;;;;;;11.00;99.90;;;;;;5006541;28;19930;-65
2022/05/31 00:35:39;;;;;;;;;;;11.00;99.90;;;;;;5011253;28;19929;-65
2022/05/31 00:38:07;;;;;;;;;;;11.00;99.90;;;;;;5005172;28;20285;-65
2022/05/31 00:40:35;;;;;;;;;;;11.00;99.90;;;;;;5011717;28;19929;-65
2022/05/31 00:43:04;;;;;;;;;;;11.00;99.90;;;;;;5003692;28;20374;-63
2022/05/31 00:45:33;;;;;;;;;;;11.00;99.90;;;;;;5006486;28;19932;-65
2022/05/31 00:48:00;;;;;;;;;;;11.00;99.90;;;;;;5010815;28;19933;-65
2022/05/31 00:50:30;;;;;;;;;;;11.00;99.90;;;;;;5004534;28;19926;-65
2022/05/31 00:52:58;;;;;;;;;;;11.10;99.90;;;;;;5010081;28;19933;-65
2022/05/31 00:55:27;;;;;;;;;;;11.10;99.90;;;;;;5009262;28;19932;-65
2022/05/31 00:57:57;;;;;;;;;;;11.10;99.90;;;;;;5025089;28;20463;-65
2022/05/31 01:00:24;;;;;;;;;;;11.10;99.90;;;;;;5008668;28;19940;-65
2022/05/31 01:02:52;;;;;;;;;;;11.20;99.90;;;;;;5017379;28;19926;-65
2022/05/31 01:05:20;;;;;;;;;;;11.20;99.90;;;;;;5011470;28;19932;-65
2022/05/31 01:07:46;;;;;;;;;;;11.20;99.90;;;;;;5005858;28;19925;-64
2022/05/31 01:10:14;;;;;;;;;;;11.20;99.90;;;;;;5008794;28;20344;-64
2022/05/31 01:12:42;;;;;;;;;;;11.20;99.90;;;;;;5013054;28;19936;-65
2022/05/31 01:15:44;;;;;;;;;;;11.20;99.90;;;;;;5000146;28;19936;-64
2022/05/31 01:18:40;;;;;;;;;;;11.30;99.90;;;;;;4983324;28;20301;-65
2022/05/31 01:21:28;;;;;;;;;;;11.30;99.90;;;;;;5012806;28;19933;-65
2022/05/31 01:24:15;;;;;;;;;;;11.30;99.90;;;;;;5040654;28;20340;-65
2022/05/31 01:26:48;;;;;;;;;;;11.30;99.90;;;;;;5008351;28;20360;-65
2022/05/31 01:29:17;;;;;;;;;;;11.30;99.90;;;;;;5022312;28;19926;-65
2022/05/31 01:31:45;;;;;;;;;;;11.30;99.90;;;;;;5007483;28;19929;-65
2022/05/31 01:34:15;;;;;;;;;;;11.30;99.90;;;;;;5022332;28;20270;-65
2022/05/31 01:36:46;;;;;;;;;;;11.30;99.90;;;;;;5009601;28;19926;-65
2022/05/31 01:39:17;;;;;;;;;;;11.30;99.90;;;;;;5009101;28;20020;-64
2022/05/31 01:41:46;;;;;;;;;;;11.40;99.90;;;;;;5006155;28;20575;-64
2022/05/31 01:44:14;;;;;;;;;;;11.40;99.90;;;;;;5019021;28;20393;-65
2022/05/31 01:46:42;;;;;;;;;;;11.50;99.90;;;;;;5006933;28;19926;-65
2022/05/31 01:49:14;;;;;;;;;;;11.50;99.90;;;;;;5010448;28;19932;-65
2022/05/31 01:51:42;;;;;;;;;;;11.50;99.90;;;;;;5007168;28;20024;-65
2022/05/31 01:54:14;;;;;;;;;;;11.40;99.90;;;;;;5010016;28;20206;-64
2022/05/31 01:56:42;;;;;;;;;;;11.40;99.90;;;;;;5008362;28;20292;-65
2022/05/31 01:59:09;;;;;;;;;;;11.40;99.90;;;;;;5043269;28;20385;-64
2022/05/31 02:01:38;;;;;;;;;;;11.40;99.90;;;;;;5019753;28;19932;-65
2022/05/31 02:04:06;;;;;;;;;;;11.40;99.90;;;;;;5006254;28;20387;-65
2022/05/31 02:06:34;;;;;;;;;;;11.40;99.90;;;;;;5017746;28;20393;-65
2022/05/31 02:09:02;;;;;;;;;;;11.40;99.90;;;;;;5038838;28;19925;-65
2022/05/31 02:11:30;;;;;;;;;;;11.40;99.90;;;;;;5006750;28;19965;-65
2022/05/31 02:14:07;;;;;;;;;;;11.30;99.90;;;;;;5040508;28;19931;-65
2022/05/31 02:16:35;;;;;;;;;;;11.30;99.90;;;;;;5017661;28;19929;-65
2022/05/31 02:19:25;;;;;;;;;;;11.30;99.90;;;;;;5011563;28;20499;-65
2022/05/31 02:22:02;;;;;;;;;;;11.30;99.90;;;;;;5007475;28;20412;-65
2022/05/31 02:24:29;;;;;;;;;;;11.30;99.90;;;;;;5004273;28;19925;-65
2022/05/31 02:26:57;;;;;;;;;;;11.30;99.90;;;;;;5006072;28;20365;-65
2022/05/31 02:29:25;;;;;;;;;;;11.30;99.90;;;;;;5007743;28;19925;-66
2022/05/31 02:31:52;;;;;;;;;;;11.30;99.90;;;;;;5004723;28;20314;-65
2022/05/31 02:34:22;;;;;;;;;;;11.20;99.90;;;;;;5007215;28;20404;-65
2022/05/31 02:36:49;;;;;;;;;;;11.20;99.90;;;;;;5016567;28;19979;-65
2022/05/31 02:39:17;;;;;;;;;;;11.30;99.90;;;;;;5036493;28;20047;-65
2022/05/31 02:41:44;;;;;;;;;;;11.20;99.90;;;;;;5005614;28;19933;-65
2022/05/31 02:44:12;;;;;;;;;;;11.30;99.90;;;;;;5009571;28;19979;-64
2022/05/31 02:46:42;;;;;;;;;;;11.20;99.90;;;;;;5018700;28;19926;-63
2022/05/31 02:49:09;;;;;;;;;;;11.20;99.90;;;;;;5004290;28;19953;-65
2022/05/31 02:51:37;;;;;;;;;;;11.30;99.90;;;;;;5017264;28;19932;-65
2022/05/31 02:54:04;;;;;;;;;;;11.30;99.90;;;;;;5034471;28;20297;-64
2022/05/31 02:56:51;;;;;;;;;;;11.30;99.90;;;;;;5010277;28;20016;-64
2022/05/31 02:59:48;;;;;;;;;;;11.30;99.90;;;;;;5007398;28;19945;-64
2022/05/31 03:02:36;;;;;;;;;;;11.30;99.90;;;;;;4993673;28;19929;-65
2022/05/31 03:05:23;;;;;;;;;;;11.30;99.90;;;;;;5010087;28;19926;-65
2022/05/31 03:08:08;;;;;;;;;;;11.30;99.90;;;;;;5009804;28;19932;-65
2022/05/31 03:10:58;;;;;;;;;;;11.20;99.90;;;;;;5008887;28;19932;-64
2022/05/31 03:13:28;;;;;;;;;;;11.20;99.90;;;;;;5036720;28;19983;-64
2022/05/31 03:16:00;;;;;;;;;;;11.20;99.90;;;;;;5001890;28;19945;-64
2022/05/31 03:18:28;;;;;;;;;;;11.20;99.90;;;;;;5004337;28;19930;-65
2022/05/31 03:20:57;;;;;;;;;;;11.20;99.90;;;;;;5009373;28;19929;-65
2022/05/31 03:23:28;;;;;;;;;;;11.10;99.90;;;;;;5003572;28;20262;-64
2022/05/31 03:25:55;;;;;;;;;;;11.10;99.90;;;;;;5002136;28;19936;-64
2022/05/31 03:28:22;;;;;;;;;;;11.10;99.90;;;;;;5033522;28;19930;-65
2022/05/31 03:30:49;;;;;;;;;;;11.20;99.90;;;;;;5000886;28;20317;-65
2022/05/31 03:33:17;;;;;;;;;;;11.20;99.90;;;;;;5038314;28;20407;-65
2022/05/31 03:35:44;;;;;;;;;;;11.20;99.90;;;;;;5000686;28;20350;-65
2022/05/31 03:38:21;;;;;;;;;;;11.10;99.90;;;;;;5005177;28;19973;-65
2022/05/31 03:40:57;;;;;;;;;;;11.10;99.90;;;;;;5035383;28;19933;-65
2022/05/31 03:43:34;;;;;;;;;;;11.20;99.90;;;;;;5006152;28;20408;-65
2022/05/31 03:46:21;;;;;;;;;;;11.10;99.90;;;;;;4998456;28;19925;-65
2022/05/31 03:49:08;;;;;;;;;;;11.20;99.90;;;;;;5010669;28;20404;-65
2022/05/31 03:51:42;;;;;;;;;;;11.10;99.90;;;;;;5001368;28;19932;-65
2022/05/31 03:54:29;;;;;;;;;;;11.10;99.90;;;;;;5004015;28;20036;-64
2022/05/31 03:57:05;;;;;;;;;;;11.20;99.90;;;;;;5010111;28;19933;-65
2022/05/31 03:59:35;;;;;;;;;;;11.10;99.90;;;;;;5003385;28;20471;-65
2022/05/31 04:02:02;;;;;;;;;;;11.10;99.90;;;;;;5023804;28;20017;-65
2022/05/31 04:04:30;;;;;;;;;;;11.20;99.90;;;;;;5004966;28;19926;-65
2022/05/31 04:06:57;;;;;;;;;;;11.20;99.90;;;;;;5034938;28;20024;-65
2022/05/31 04:09:24;;;;;;;;;;;11.20;99.90;;;;;;5004008;28;19938;-65
2022/05/31 04:11:51;;;;;;;;;;;11.20;99.90;;;;;;5005050;28;19926;-64
2022/05/31 04:14:38;;;;;;;;;;;11.20;99.90;;;;;;5007026;28;19940;-65
2022/05/31 04:17:07;;;;;;;;;;;11.20;99.90;;;;;;5026086;28;20412;-65
2022/05/31 04:19:36;;;;;;;;;;;11.20;99.90;;;;;;5015614;28;20048;-64
2022/05/31 04:22:03;;;;;;;;;;;11.20;99.90;;;;;;5019182;28;20020;-65
2022/05/31 04:24:31;;;;;;;;;;;11.20;99.90;;;;;;5010193;28;19929;-65
2022/05/31 04:27:30;;;;;;;;;;;11.10;99.90;;;;;;4989474;28;19948;-65
2022/05/31 04:30:16;;;;;;;;;;;11.20;99.90;;;;;;5007390;28;19993;-65
2022/05/31 04:33:12;;;;;;;;;;;11.20;99.90;;;;;;5001739;28;20019;-65
2022/05/31 04:35:41;;;;;;;;;;;11.10;99.90;;;;;;5007521;28;19956;-64
2022/05/31 04:38:08;;;;;;;;;;;11.10;99.90;;;;;;5029420;28;19969;-64
2022/05/31 04:40:50;;;;;;;;;;;11.10;99.90;;;;;;5013458;28;19926;-65
2022/05/31 04:43:36;;;;;;;;;;;11.10;99.90;;;;;;5014402;28;19995;-64
2022/05/31 04:46:15;;;;;;;;;;;11.10;99.90;;;;;;5033304;28;19926;-68
2022/05/31 04:48:50;;;;;;;;;;;11.10;99.90;;;;;;5011913;28;19932;-67
2022/05/31 04:51:19;;;;;;;;;;;11.10;99.90;;;;;;5013328;28;19996;-67
2022/05/31 04:53:57;;;;;;;;;;;11.00;99.90;;;;;;5045686;28;19929;-68
2022/05/31 04:56:42;;;;;;;;;;;10.90;99.90;;;;;;5010075;28;19926;-67
2022/05/31 04:59:11;;;;;;;;;;;10.90;99.90;;;;;;5011690;28;19932;-67
2022/05/31 05:01:40;;;;;;;;;;;10.90;99.90;;;;;;5010492;28;20313;-70
2022/05/31 05:04:12;;;;;;;;;;;11.00;99.90;;;;;;5009563;28;19926;-64
2022/05/31 05:06:57;;;;;;;;;;;11.00;99.90;;;;;;5007115;28;19925;-65
2022/05/31 05:09:25;;;;;;;;;;;11.00;99.90;;;;;;5012536;28;19976;-66
2022/05/31 05:12:10;;;;;;;;;;;11.10;99.90;;;;;;5009334;28;19932;-63
2022/05/31 05:14:42;;;;;;;;;;;11.10;99.90;;;;;;5011631;28;19926;-66
2022/05/31 05:17:23;;;;;;;;;;;11.20;99.90;;;;;;5011913;28;20305;-67
2022/05/31 05:19:50;;;;;;;;;;;11.20;99.90;;;;;;5011411;28;20048;-65
2022/05/31 05:22:19;;;;;;;;;;;11.20;99.90;;;;;;5012730;28;19925;-65
2022/05/31 05:24:46;;;;;;;;;;;11.20;99.90;;;;;;5012136;28;19936;-64
2022/05/31 05:27:36;;;;;;;;;;;11.30;99.90;;;;;;5010375;28;20488;-65
2022/05/31 05:30:40;;;;;;;;;;;11.40;99.90;;;;;;5008039;28;20015;-65
2022/05/31 05:33:19;;;;;;;;;;;11.40;99.90;;;;;;5010931;28;19925;-65
2022/05/31 05:36:05;;;;;;;;;;;11.40;99.90;;;;;;5011881;28;19979;-65
2022/05/31 05:38:33;;;;;;;;;;;11.40;99.90;;;;;;5010701;28;19926;-64
2022/05/31 05:41:19;;;;;;;;;;;11.50;99.90;;;;;;5011462;28;20343;-64
2022/05/31 05:44:05;;;;;;;;;;;11.60;99.90;;;;;;5012349;28;19941;-66
2022/05/31 05:46:33;;;;;;;;;;;11.60;99.90;;;;;;4999286;28;19925;-65
2022/05/31 05:49:01;;;;;;;;;;;11.50;99.90;;;;;;5011288;28;19925;-65
2022/05/31 05:51:30;;;;;;;;;;;11.70;99.90;;;;;;4997564;28;20420;-65
2022/05/31 05:54:16;;;;;;;;;;;11.70;99.90;;;;;;5005533;28;20047;-66
2022/05/31 05:57:09;;;;;;;;;;;11.80;99.90;;;;;;5013406;28;19933;-65
2022/05/31 06:00:06;;;;;;;;;;;11.90;99.90;;;;;;5010702;28;20078;-66
2022/05/31 06:02:57;;;;;;;;;;;11.90;99.90;;;;;;5011972;28;19926;-66
2022/05/31 06:05:49;;;;;;;;;;;12.00;99.90;;;;;;5005735;28;19925;-66
2022/05/31 06:08:20;;;;;;;;;;;12.10;99.90;;;;;;5010678;28;19930;-66
2022/05/31 06:10:52;;;;;;;;;;;12.30;99.90;;;;;;5014364;28;19940;-66
2022/05/31 06:13:21;;;;;;;;;;;12.40;99.90;;;;;;5005038;28;19934;-65
2022/05/31 06:15:50;;;;;;;;;;;12.70;99.90;;;;;;5010267;28;19973;-66
2022/05/31 06:18:20;;;;;;;;;;;12.80;99.90;;;;;;5008862;28;19932;-67
2022/05/31 06:20:48;;;;;;;;;;;12.90;99.90;;;;;;5009411;28;19929;-66
2022/05/31 06:23:15;;;;;;;;;;;12.90;99.90;;;;;;5008014;28;19979;-66
2022/05/31 06:25:42;;;;;;;;;;;13.00;99.90;;;;;;5008502;28;19953;-66
2022/05/31 06:28:35;;;;;;;;;;;13.00;99.90;;;;;;5009792;28;20075;-67
2022/05/31 06:31:02;;;;;;;;;;;12.90;99.90;;;;;;5003401;28;19926;-66
2022/05/31 06:33:29;;;;;;;;;;;12.70;99.90;;;;;;5007698;28;19929;-66
2022/05/31 06:35:58;;;;;;;;;;;12.70;99.90;;;;;;5005990;28;19925;-66
2022/05/31 06:38:25;;;;;;;;;;;12.60;99.90;;;;;;5008479;28;19968;-67
2022/05/31 06:40:52;;;;;;;;;;;12.50;99.90;;;;;;5024226;28;19926;-67
2022/05/31 06:43:50;;;;;;;;;;;12.60;99.90;;;;;;5013313;28;19984;-66
2022/05/31 06:46:35;;;;;;;;;;;12.70;99.90;;;;;;5008093;28;20389;-66
2022/05/31 06:49:21;;;;;;;;;;;12.80;99.90;;;;;;5010234;28;20349;-67
2022/05/31 06:57:58;;;;;;;;;;;13.60;99.90;;;;;;5009529;28;19929;-67
2022/05/31 07:00:33;;;;;;;;;;;13.90;99.90;;;;;;5000800;28;19925;-67
2022/05/31 07:03:00;;;;;;;;;;;14.10;99.90;;;;;;5038198;28;19934;-67
2022/05/31 07:05:39;;;;;;;;;;;14.40;99.90;;;;;;5000269;28;20032;-66
2022/05/31 07:08:08;;;;;;;;;;;14.60;99.90;;;;;;5009194;28;19925;-67
2022/05/31 07:10:53;;;;;;;;;;;14.70;99.90;;;;;;5010688;28;20072;-66
2022/05/31 07:13:52;;;;;;;;;;;14.70;99.90;;;;;;5008106;28;19933;-66
2022/05/31 07:16:39;;;;;;;;;;;14.90;99.90;;;;;;5006983;28;20431;-66
2022/05/31 07:19:25;;;;;;;;;;;14.80;99.90;;;;;;4996625;28;19932;-66
2022/05/31 07:21:52;;;;;;;;;;;14.90;99.90;;;;;;5009613;28;19937;-66
2022/05/31 07:24:19;;;;;;;;;;;14.90;99.90;;;;;;5014272;28;19932;-67
2022/05/31 07:27:05;;;;;;;;;;;15.10;99.90;;;;;;5010300;28;19932;-67
2022/05/31 07:29:33;;;;;;;;;;;15.10;99.90;;;;;;5017202;28;19926;-66
2022/05/31 07:32:01;;;;;;;;;;;15.00;99.90;;;;;;5009774;28;19932;-67
2022/05/31 07:34:31;;;;;;;;;;;15.00;99.90;;;;;;5005778;28;19981;-67
2022/05/31 07:36:58;;;;;;;;;;;15.00;99.90;;;;;;5037315;28;19937;-66
2022/05/31 07:39:25;;;;;;;;;;;14.90;99.90;;;;;;5004751;28;19934;-68
2022/05/31 07:41:54;;;;;;;;;;;15.00;99.90;;;;;;5007893;28;19925;-66
2022/05/31 07:44:22;;;;;;;;;;;15.00;99.90;;;;;;5046194;28;19930;-67
2022/05/31 07:46:49;;;;;;;;;;;15.00;99.90;;;;;;5009263;28;19925;-67
2022/05/31 07:49:18;;;;;;;;;;;14.90;99.90;;;;;;5010510;28;19926;-67
2022/05/31 07:52:07;;;;;;;;;;;14.90;99.90;;;;;;5011428;28;19932;-67
2022/05/31 07:54:52;;;;;;;;;;;15.00;99.90;;;;;;5009808;28;19936;-67
2022/05/31 08:01:13;;;;;;;;;;;14.90;99.90;;;;;;4986038;28;20380;-65
2022/05/31 08:03:41;;;;;;;;;;;14.80;99.90;;;;;;5004767;28;19965;-66
2022/05/31 08:06:10;;;;;;;;;;;14.90;99.90;;;;;;5012923;28;19930;-66
2022/05/31 08:08:37;;;;;;;;;;;15.00;99.90;;;;;;5022786;28;19930;-65
2022/05/31 08:11:05;;;;;;;;;;;15.00;99.90;;;;;;5011970;28;19926;-65
2022/05/31 08:13:31;;;;;;;;;;;14.80;99.90;;;;;;5012548;28;19937;-65
2022/05/31 08:15:58;;;;;;;;;;;14.60;99.90;;;;;;5021081;28;19925;-65
2022/05/31 08:18:25;;;;;;;;;;;14.50;99.90;;;;;;5034507;28;19980;-65
2022/05/31 08:20:57;;;;;;;;;;;14.50;99.90;;;;;;5026109;28;19930;-65
2022/05/31 08:23:25;;;;;;;;;;;14.50;99.90;;;;;;5020569;28;20447;-65
2022/05/31 08:25:54;;;;;;;;;;;14.60;99.90;;;;;;5020433;28;19979;-66
2022/05/31 08:28:20;;;;;;;;;;;14.70;99.90;;;;;;5019344;28;19926;-66
2022/05/31 08:30:47;;;;;;;;;;;14.70;99.90;;;;;;5011978;28;19930;-65
2022/05/31 08:33:14;;;;;;;;;;;14.60;99.90;;;;;;5011537;28;19926;-65
2022/05/31 08:35:41;;;;;;;;;;;14.70;99.90;;;;;;5031368;28;19926;-65
2022/05/31 08:38:08;;;;;;;;;;;14.80;99.90;;;;;;5029096;28;20681;-65
2022/05/31 08:40:41;;;;;;;;;;;14.80;99.90;;;;;;5029337;28;20294;-65
2022/05/31 08:43:08;;;;;;;;;;;14.90;99.90;;;;;;5011831;28;19930;-65
2022/05/31 08:45:40;;;;;;;;;;;14.80;99.90;;;;;;5011603;28;19925;-65
2022/05/31 08:48:09;;;;;;;;;;;14.80;99.90;;;;;;5011158;28;19932;-66
2022/05/31 08:53:26;;;;;;;;;;;14.90;99.90;;;;;;5009634;28;19929;-65
2022/05/31 08:58:44;;;;;;;;;;;14.70;99.90;;;;;;5011065;28;20007;-65
2022/05/31 09:01:12;;;;;;;;;;;14.80;99.90;;;;;;5009933;28;19929;-65
2022/05/31 09:03:43;;;;;;;;;;;14.70;99.90;;;;;;5009462;28;19973;-65
2022/05/31 09:06:11;;;;;;;;;;;14.80;99.90;;;;;;5010392;28;19925;-65
2022/05/31 09:08:39;;;;;;;;;;;14.80;99.90;;;;;;5009106;28;19934;-65
2022/05/31 09:11:12;;;;;;;;;;;14.90;99.90;;;;;;5042461;28;19988;-64
2022/05/31 09:13:40;;;;;;;;;;;15.30;99.90;;;;;;5010970;28;20444;-65
2022/05/31 09:16:09;;;;;;;;;;;;;;;;;;5011529;28;19925;-64
2022/05/31 09:18:39;;;;;;;;;;;16.00;99.90;;;;;;5010035;28;19929;-64
2022/05/31 09:21:12;;;;;;;;;;;16.20;99.90;;;;;;5010864;28;19934;-64
2022/05/31 09:23:39;;;;;;;;;;;16.20;99.90;;;;;;5011319;28;20428;-64
2022/05/31 09:26:13;;;;;;;;;;;16.50;99.90;;;;;;5010092;28;19933;-64
2022/05/31 09:28:45;;;;;;;;;;;16.70;99.90;;;;;;5008509;28;19925;-64
2022/05/31 09:31:19;;;;;;;;;;;16.90;99.90;;;;;;5025914;28;19925;-65
2022/05/31 09:33:53;;;;;;;;;;;17.20;99.90;;;;;;5037668;28;19925;-65
2022/05/31 09:36:22;;;;;;;;;;;17.40;99.90;;;;;;5010048;28;20320;-66
2022/05/31 09:39:04;;;;;;;;;;;17.40;99.90;;;;;;5011787;28;19964;-65
2022/05/31 09:41:34;;;;;;;;;;;17.60;99.90;;;;;;5008966;28;19989;-66
2022/05/31 09:44:04;;;;;;;;;;;17.50;99.90;;;;;;5010371;28;19984;-65
2022/05/31 09:46:37;;;;;;;;;;;17.50;99.90;;;;;;5013979;28;20347;-65
2022/05/31 09:49:12;;;;;;;;;;;17.60;99.90;;;;;;5019691;28;19926;-65
2022/05/31 09:51:40;;;;;;;;;;;17.70;99.90;;;;;;5010421;28;19972;-65
2022/05/31 09:57:13;;;;;;;;;;;17.60;99.90;;;;;;5008574;28;19925;-62
2022/05/31 10:00:15;;;;;;;;;;;17.60;99.90;;;;;;5012201;28;19933;-63
2022/05/31 10:02:58;;;;;;;;;;;17.40;99.90;;;;;;5006788;28;20012;-64
2022/05/31 10:05:25;;;;;;;;;;;17.50;99.90;;;;;;5006763;28;19976;-65
2022/05/31 10:07:52;;;;;;;;;;;17.50;99.90;;;;;;5032544;28;19926;-66
2022/05/31 10:10:24;;;;;;;;;;;17.30;99.90;;;;;;5005410;28;20377;-66
2022/05/31 10:12:52;;;;;;;;;;;17.20;99.90;;;;;;5011582;28;19925;-66
2022/05/31 10:15:50;;;;;;;;;;;17.40;99.90;;;;;;5022591;28;19964;-65
2022/05/31 10:18:28;;;;;;;;;;;17.70;99.90;;;;;;4953480;28;19926;-69
2022/05/31 10:20:57;;;;;;;;;;;18.10;99.90;;;;;;4998917;28;20373;-65
2022/05/31 10:23:24;;;;;;;;;;;18.50;99.90;;;;;;5005108;28;19925;-66
2022/05/31 10:26:23;;;;;;;;;;;18.50;99.90;;;;;;5012566;28;20400;-65
2022/05/31 10:29:12;;;;;;;;;;;18.40;99.90;;;;;;5004987;28;19930;-65
2022/05/31 10:31:59;;;;;;;;;;;18.50;99.90;;;;;;4996083;28;20023;-65
2022/05/31 10:34:32;;;;;;;;;;;18.70;99.90;;;;;;5002974;28;19953;-65
2022/05/31 10:37:00;;;;;;;;;;;18.90;99.90;;;;;;5003126;28;20274;-66
2022/05/31 10:39:28;;;;;;;;;;;19.20;99.90;;;;;;5007744;28;19926;-66
2022/05/31 10:41:57;;;;;;;;;;;19.20;99.90;;;;;;5008827;28;20480;-66
2022/05/31 10:44:30;;;;;;;;;;;19.40;99.90;;;;;;5011135;28;19948;-66
2022/05/31 10:46:59;;;;;;;;;;;19.50;99.90;;;;;;5040476;28;19926;-66
2022/05/31 10:49:26;;;;;;;;;;;19.90;99.90;;;;;;5033345;28;19972;-66
2022/05/31 10:52:01;;;;;;;;;;;20.20;99.90;;;;;;5036942;28;19933;-67
2022/05/31 10:54:42;;;;;;;;;;;20.60;99.90;;;;;;5003978;28;19926;-66
2022/05/31 10:57:14;;;;;;;;;;;20.80;99.90;;;;;;5010833;28;19933;-65
2022/05/31 10:59:45;;;;;;;;;;;20.80;99.90;;;;;;5009020;28;19949;-67
2022/05/31 11:02:30;;;;;;;;;;;21.00;99.90;;;;;;5002613;28;19926;-67
2022/05/31 11:04:58;;;;;;;;;;;21.10;99.90;;;;;;4990359;28;19933;-67
2022/05/31 11:07:30;;;;;;;;;;;21.10;99.90;;;;;;5021732;28;19972;-66
2022/05/31 11:12:58;;;;;;;;;;;21.00;99.90;;;;;;5008314;28;19925;-68
2022/05/31 11:15:32;;;;;;;;;;;21.20;99.90;;;;;;5009044;28;19926;-67
2022/05/31 11:18:18;;;;;;;;;;;21.00;99.90;;;;;;5013616;28;19926;-67
2022/05/31 11:20:48;;;;;;;;;;;21.00;99.90;;;;;;5027852;28;20362;-67
2022/05/31 11:23:26;;;;;;;;;;;21.40;99.90;;;;;;5011854;28;20020;-67
2022/05/31 11:25:57;;;;;;;;;;;21.70;99.90;;;;;;5004949;28;19925;-66
2022/05/31 11:28:30;;;;;;;;;;;21.50;99.90;;;;;;5014585;28;20020;-67
2022/05/31 11:31:07;;;;;;;;;;;21.30;99.90;;;;;;5010922;28;20454;-67
2022/05/31 11:33:38;;;;;;;;;;;20.90;99.90;;;;;;5020382;28;19926;-66
2022/05/31 11:36:14;;;;;;;;;;;21.10;99.90;;;;;;5010234;28;20020;-67
2022/05/31 11:38:47;;;;;;;;;;;21.00;99.90;;;;;;5021769;28;20020;-65
2022/05/31 11:41:20;;;;;;;;;;;20.90;99.90;;;;;;5009446;28;19925;-66
2022/05/31 11:44:04;;;;;;;;;;;20.80;99.90;;;;;;5024103;28;19932;-65
2022/05/31 11:46:36;;;;;;;;;;;20.40;99.90;;;;;;5008195;28;19953;-65
2022/05/31 11:49:06;;;;;;;;;;;20.20;99.90;;;;;;5029354;28;19952;-64
2022/05/31 11:51:51;;;;;;;;;;;20.00;99.90;;;;;;5013302;28;19925;-65
2022/05/31 11:54:32;;;;;;;;;;;19.50;99.90;;;;;;5004464;28;20008;-66
2022/05/31 11:57:03;;;;;;;;;;;19.50;99.90;;;;;;5012406;28;19925;-65
2022/05/31 11:59:34;;;;;;;;;;;19.60;99.90;;;;;;5010705;28;19929;-66
2022/05/31 12:02:04;;;;;;;;;;;19.70;99.90;;;;;;5038299;28;19983;-65
2022/05/31 12:04:34;;;;;;;;;;;20.30;99.90;;;;;;5009731;28;20409;-65
2022/05/31 12:07:04;;;;;;;;;;;20.80;99.90;;;;;;5036581;28;19926;-66
2022/05/31 12:09:37;;;;;;;;;;;20.90;99.90;;;;;;5009297;28;20028;-65
2022/05/31 12:12:06;;;;;;;;;;;21.00;99.90;;;;;;5012934;28;19932;-66
2022/05/31 12:14:38;;;;;;;;;;;21.00;99.90;;;;;;5010607;28;19925;-66
2022/05/31 12:17:05;;;;;;;;;;;20.90;99.90;;;;;;5012469;28;19961;-66
2022/05/31 12:19:36;;;;;;;;;;;20.90;99.90;;;;;;5009305;28;19926;-65
2022/05/31 12:22:06;;;;;;;;;;;20.60;99.90;;;;;;5009181;28;19937;-66
2022/05/31 12:24:38;;;;;;;;;;;20.30;99.90;;;;;;5007283;28;20352;-65
2022/05/31 12:27:08;;;;;;;;;;;20.00;99.90;;;;;;5012543;28;19926;-66
2022/05/31 12:29:40;;;;;;;;;;;19.70;99.90;;;;;;5043758;28;19933;-65
2022/05/31 12:32:27;;;;;;;;;;;19.50;99.90;;;;;;5012543;28;19925;-66
2022/05/31 12:34:54;;;;;;;;;;;19.60;99.90;;;;;;5012139;28;19932;-66
2022/05/31 12:37:21;;;;;;;;;;;19.60;99.90;;;;;;5017096;28;19925;-66
2022/05/31 12:39:48;;;;;;;;;;;;;;;;;;5037072;28;19926;-66
2022/05/31 12:42:39;;;;;;;;;;;23.10;99.90;;;;;;5009563;28;19926;-67
2022/05/31 12:45:21;;;;;;;;;;;25.50;99.90;;;;;;5011279;28;20399;-65
2022/05/31 12:47:55;;;;;;;;;;;27.40;99.90;;;;;;5012181;28;19973;-66
2022/05/31 12:50:40;;;;;;;;;;;27.40;99.90;;;;;;5038902;28;19932;-66
2022/05/31 12:53:22;;;;;;;;;;;27.20;99.90;;;;;;5007043;28;19984;-66
2022/05/31 12:55:51;;;;;;;;;;;26.20;99.90;;;;;;5008837;28;19926;-66
2022/05/31 12:58:36;;;;;;;;;;;25.60;99.90;;;;;;5041074;28;19987;-65
2022/05/31 13:01:06;;;;;;;;;;;25.00;99.90;;;;;;5008713;28;19995;-66
2022/05/31 13:03:52;;;;;;;;;;;24.90;99.90;;;;;;5009944;28;20339;-66
2022/05/31 13:06:23;;;;;;;;;;;24.50;99.90;;;;;;5009036;28;19980;-66
2022/05/31 13:08:55;;;;;;;;;;;24.00;99.90;;;;;;5039255;28;19992;-66
2022/05/31 13:19:59;;;;;;;;;;;22.30;99.90;;;;;;5009666;28;19921;-65
2022/05/31 13:22:30;;;;;;;;;;;22.80;99.90;;;;;;5016428;28;19925;-66
2022/05/31 13:25:01;;;;;;;;;;;23.20;99.90;;;;;;5012228;28;19976;-66
2022/05/31 13:27:30;;;;;;;;;;;23.20;99.90;;;;;;5023570;28;19926;-66
2022/05/31 13:30:09;;;;;;;;;;;22.50;99.90;;;;;;5030290;28;19965;-66
2022/05/31 13:32:36;;;;;;;;;;;22.40;99.90;;;;;;5008528;28;20397;-64
2022/05/31 13:35:08;;;;;;;;;;;22.70;99.90;;;;;;5008611;28;19929;-66
2022/05/31 13:37:47;;;;;;;;;;;23.10;99.90;;;;;;5016429;28;19926;-67
2022/05/31 13:40:16;;;;;;;;;;;24.10;99.90;;;;;;5022636;28;19969;-66
2022/05/31 13:42:43;;;;;;;;;;;24.50;99.90;;;;;;5006760;28;19934;-66
2022/05/31 13:45:14;;;;;;;;;;;24.10;99.90;;;;;;5009548;28;19929;-66
2022/05/31 13:47:47;;;;;;;;;;;22.90;99.90;;;;;;5017964;28;20012;-66
2022/05/31 13:50:17;;;;;;;;;;;22.60;99.90;;;;;;5007666;28;19929;-65
2022/05/31 13:52:48;;;;;;;;;;;23.70;99.90;;;;;;5009148;28;19929;-67
2022/05/31 13:55:19;;;;;;;;;;;24.90;99.90;;;;;;5008630;28;20004;-66
2022/05/31 13:57:50;;;;;;;;;;;25.50;99.90;;;;;;5010586;28;19999;-67
2022/05/31 14:00:30;;;;;;;;;;;25.20;99.90;;;;;;5009996;28;19988;-66
2022/05/31 14:03:05;;;;;;;;;;;24.60;99.90;;;;;;5008991;28;20024;-66
2022/05/31 14:05:34;;;;;;;;;;;24.90;99.90;;;;;;5005171;28;19925;-67
2022/05/31 14:08:01;;;;;;;;;;;26.40;99.90;;;;;;5010304;28;19965;-66
2022/05/31 14:10:30;;;;;;;;;;;27.30;99.90;;;;;;5009968;28;20032;-67
2022/05/31 14:12:59;;;;;;;;;;;27.50;99.90;;;;;;5011535;28;20037;-66
2022/05/31 14:15:28;;;;;;;;;;;27.70;99.90;;;;;;5009744;28;19925;-67
2022/05/31 14:18:04;;;;;;;;;;;28.10;99.90;;;;;;5010258;28;19932;-66
2022/05/31 14:20:33;;;;;;;;;;;28.60;99.90;;;;;;5008148;28;20436;-66
2022/05/31 14:23:02;;;;;;;;;;;29.80;99.90;;;;;;5008994;28;20036;-66
2022/05/31 14:25:29;;;;;;;;;;;30.10;99.90;;;;;;5007353;28;19926;-65
2022/05/31 14:27:56;;;;;;;;;;;28.20;99.90;;;;;;5040347;28;20028;-67
2022/05/31 14:30:31;;;;;;;;;;;27.00;99.90;;;;;;5009722;28;19996;-66
2022/05/31 14:33:01;;;;;;;;;;;25.30;99.90;;;;;;5011215;28;19952;-66
2022/05/31 14:35:30;;;;;;;;;;;24.30;99.90;;;;;;5004217;28;19929;-67
2022/05/31 14:37:57;;;;;;;;;;;23.80;99.90;;;;;;5005874;28;19929;-67
2022/05/31 14:40:26;;;;;;;;;;;23.30;99.90;;;;;;5005177;28;20027;-66
2022/05/31 14:42:57;;;;;;;;;;;22.90;99.90;;;;;;5007648;28;19961;-66
2022/05/31 14:45:29;;;;;;;;;;;22.70;99.90;;;;;;5009219;28;20270;-66
2022/05/31 14:47:57;;;;;;;;;;;22.70;99.90;;;;;;5008476;28;19996;-66
2022/05/31 14:50:26;;;;;;;;;;;22.50;99.90;;;;;;5009270;28;20336;-66
2022/05/31 14:52:54;;;;;;;;;;;22.70;99.90;;;;;;5018961;28;19925;-65
2022/05/31 14:55:33;;;;;;;;;;;23.80;99.90;;;;;;5040028;28;19925;-65
2022/05/31 15:00:46;;;;;;;;;;;24.80;99.90;;;;;;5009219;28;19922;-66
2022/05/31 15:03:28;;;;;;;;;;;24.20;99.90;;;;;;5009032;28;19940;-66
2022/05/31 15:06:02;;;;;;;;;;;23.50;99.90;;;;;;5005558;28;20004;-66
2022/05/31 15:08:29;;;;;;;;;;;23.10;99.90;;;;;;5006302;28;20485;-65
2022/05/31 15:18:56;;;;;;;;;;;22.80;99.90;;;;;;5005817;28;19964;-65
2022/05/31 15:19:35;;;;;;;;;;;21.70;99.90;;;;;;4938295;28;20349;-65
2022/05/31 15:22:03;;;;;;;;;;;21.80;99.90;;;;;;5008360;28;20297;-65
2022/05/31 15:24:31;;;;;;;;;;;22.50;99.90;;;;;;5008597;28;20030;-65
2022/05/31 15:26:58;;;;;;;;;;;21.80;99.90;;;;;;5009122;28;19929;-65
2022/05/31 15:29:25;;;;;;;;;;;22.00;99.90;;;;;;5005892;28;19952;-65
2022/05/31 15:31:52;;;;;;;;;;;21.90;99.90;;;;;;5009046;28;19979;-65